Time;durP1;ratioP1;P1;durP2;ratioP2;P2;SDS_P1;SDS_P2;PMS_P1;PMS_P2;Temp;Humidity;BMP_temperature;BMP_pressure;BME280_temperature;BME280_humidity;BME280_pressure;Samples;Min_cycle;Max_cycle;Signal;HPM_P1;HPM_P2
2021/05/29 00:01:04;;;;;;;10.25;6.45;;;13.60;89.90;;;;;;5053955;28;20045;-85
2021/05/29 00:03:29;;;;;;;11.10;6.75;;;13.60;90.00;;;;;;5053991;28;20053;-85
2021/05/29 00:05:55;;;;;;;10.55;6.70;;;13.50;90.00;;;;;;5051760;28;20059;-85
2021/05/29 00:08:22;;;;;;;12.63;7.13;;;13.60;90.00;;;;;;5053810;28;20049;-85
2021/05/29 00:10:51;;;;;;;9.10;6.50;;;13.50;90.10;;;;;;5053975;28;20148;-84
2021/05/29 00:13:19;;;;;;;10.13;6.38;;;13.40;90.00;;;;;;5053279;28;20067;-85
2021/05/29 00:15:45;;;;;;;9.82;6.47;;;13.40;90.10;;;;;;5054109;28;20060;-85
2021/05/29 00:18:10;;;;;;;10.52;7.45;;;13.30;90.00;;;;;;5052701;28;20053;-84
2021/05/29 00:20:39;;;;;;;9.60;6.72;;;13.30;90.10;;;;;;5053835;28;20041;-84
2021/05/29 00:23:08;;;;;;;11.73;7.35;;;13.30;90.00;;;;;;5053235;28;20500;-85
2021/05/29 00:25:35;;;;;;;11.30;7.13;;;13.20;90.10;;;;;;5053051;28;20052;-84
2021/05/29 00:28:00;;;;;;;9.55;7.05;;;13.20;90.20;;;;;;5053080;28;20076;-84
2021/05/29 00:30:26;;;;;;;11.70;7.22;;;13.10;90.20;;;;;;5053421;28;20139;-84
2021/05/29 00:32:52;;;;;;;11.15;6.90;;;13.10;90.10;;;;;;5052441;28;20571;-84
2021/05/29 00:35:18;;;;;;;9.15;7.10;;;13.10;90.00;;;;;;5035891;28;20057;-84
2021/05/29 00:37:45;;;;;;;11.02;7.40;;;13.00;90.00;;;;;;5053694;28;20491;-84
2021/05/29 00:40:12;;;;;;;10.60;7.30;;;13.00;90.10;;;;;;5052353;28;20045;-84
2021/05/29 00:42:37;;;;;;;11.00;7.10;;;12.90;89.90;;;;;;5053545;28;20106;-84
2021/05/29 00:45:04;;;;;;;10.35;7.40;;;12.90;90.00;;;;;;5053194;28;20053;-84
2021/05/29 00:47:30;;;;;;;13.05;7.40;;;12.90;89.50;;;;;;5051901;28;20052;-84
2021/05/29 00:50:03;;;;;;;12.95;7.57;;;12.80;89.50;;;;;;5052425;28;20037;-84
2021/05/29 00:52:29;;;;;;;11.00;7.40;;;12.80;89.50;;;;;;5053208;28;20044;-84
2021/05/29 00:54:55;;;;;;;12.00;7.85;;;12.70;89.80;;;;;;5051780;28;20107;-84
2021/05/29 00:57:21;;;;;;;11.68;7.75;;;12.70;89.90;;;;;;5052432;28;20473;-84
2021/05/29 00:59:47;;;;;;;10.98;7.47;;;12.60;90.00;;;;;;5051558;28;20049;-84
2021/05/29 01:02:16;;;;;;;12.07;8.20;;;12.60;90.00;;;;;;5050708;28;20389;-84
2021/05/29 01:04:43;;;;;;;11.98;8.00;;;12.60;90.10;;;;;;5051748;28;20041;-85
2021/05/29 01:07:13;;;;;;;11.23;7.93;;;12.50;90.00;;;;;;5051822;28;20055;-84
2021/05/29 01:09:43;;;;;;;10.77;8.20;;;12.50;90.00;;;;;;5052886;28;20049;-84
2021/05/29 01:12:12;;;;;;;12.88;8.40;;;12.50;89.90;;;;;;5052471;28;20132;-83
2021/05/29 01:14:46;;;;;;;10.27;7.60;;;12.50;90.00;;;;;;5051721;28;20041;-83
2021/05/29 01:17:12;;;;;;;11.63;8.50;;;12.50;90.00;;;;;;5049557;28;20074;-84
2021/05/29 01:19:37;;;;;;;12.18;8.85;;;12.50;90.00;;;;;;5052686;28;20068;-84
2021/05/29 01:22:11;;;;;;;12.23;8.57;;;12.40;89.90;;;;;;5051450;28;20485;-84
2021/05/29 01:24:38;;;;;;;11.82;8.35;;;12.40;90.10;;;;;;5050844;28;20068;-84
2021/05/29 01:27:05;;;;;;;11.68;8.27;;;12.40;90.00;;;;;;5051639;28;20045;-84
2021/05/29 01:29:32;;;;;;;12.50;8.63;;;12.40;90.10;;;;;;5048531;28;20409;-83
2021/05/29 01:32:02;;;;;;;12.90;9.15;;;12.40;90.00;;;;;;5052098;28;20053;-84
2021/05/29 01:34:34;;;;;;;11.75;8.88;;;12.40;90.10;;;;;;5052313;28;20056;-84
2021/05/29 01:37:02;;;;;;;11.55;8.30;;;12.40;90.10;;;;;;5051086;28;20052;-84
2021/05/29 01:39:28;;;;;;;15.38;9.50;;;12.40;90.20;;;;;;5052282;28;20052;-84
2021/05/29 01:41:54;;;;;;;11.35;9.30;;;12.30;90.10;;;;;;5052068;28;20045;-84
2021/05/29 01:44:22;;;;;;;14.57;9.27;;;12.30;90.30;;;;;;5051823;28;20045;-85
2021/05/29 01:46:52;;;;;;;13.18;9.38;;;12.30;90.40;;;;;;5052187;28;20114;-84
2021/05/29 01:49:19;;;;;;;14.15;9.35;;;12.30;90.30;;;;;;5052639;28;20102;-84
2021/05/29 01:51:45;;;;;;;12.27;9.13;;;12.30;90.30;;;;;;5051995;28;20496;-84
2021/05/29 01:54:14;;;;;;;13.73;9.55;;;12.30;90.20;;;;;;5051782;28;20309;-84
2021/05/29 01:56:41;;;;;;;11.45;9.15;;;12.30;90.30;;;;;;5051390;28;20056;-84
2021/05/29 01:59:07;;;;;;;12.90;9.55;;;12.20;90.20;;;;;;5051494;28;20057;-85
2021/05/29 02:01:33;;;;;;;13.30;9.40;;;12.20;90.20;;;;;;5052333;28;20071;-85
2021/05/29 02:03:59;;;;;;;13.70;9.85;;;12.20;90.20;;;;;;5051336;28;20048;-85
2021/05/29 02:06:25;;;;;;;12.25;9.23;;;12.20;90.20;;;;;;5051848;28;20143;-84
2021/05/29 02:08:50;;;;;;;13.38;9.40;;;12.20;90.20;;;;;;5052091;28;20045;-84
2021/05/29 02:11:16;;;;;;;13.43;9.95;;;12.10;90.10;;;;;;5051118;28;20056;-84
2021/05/29 02:13:43;;;;;;;14.57;10.10;;;12.10;90.00;;;;;;5052377;28;20382;-84
2021/05/29 02:16:10;;;;;;;11.77;9.70;;;12.10;90.30;;;;;;5051758;28;20049;-84
2021/05/29 02:18:37;;;;;;;13.73;9.93;;;12.10;90.50;;;;;;5051493;28;20057;-84
2021/05/29 02:21:06;;;;;;;10.35;9.25;;;12.10;90.80;;;;;;5051860;28;20400;-84
2021/05/29 02:23:43;;;;;;;13.40;9.15;;;12.10;90.90;;;;;;5052151;28;20080;-84
2021/05/29 02:26:12;;;;;;;12.82;9.88;;;12.10;90.90;;;;;;5050956;28;20075;-84
2021/05/29 02:28:40;;;;;;;11.60;9.57;;;12.10;90.90;;;;;;5053839;28;20110;-84
2021/05/29 02:31:07;;;;;;;13.73;9.90;;;12.10;90.90;;;;;;5055661;28;20049;-84
2021/05/29 02:33:33;;;;;;;13.65;9.63;;;12.10;91.00;;;;;;5055108;28;20052;-83
2021/05/29 02:36:00;;;;;;;11.95;9.32;;;12.00;91.00;;;;;;5055328;28;20045;-83
2021/05/29 02:38:30;;;;;;;11.13;9.27;;;12.00;90.90;;;;;;5055868;28;20049;-84
2021/05/29 02:40:57;;;;;;;12.35;9.32;;;12.00;91.00;;;;;;5054815;28;20110;-84
2021/05/29 02:43:23;;;;;;;12.55;9.48;;;12.00;90.80;;;;;;5055646;28;20048;-84
2021/05/29 02:45:49;;;;;;;14.25;10.15;;;12.00;90.80;;;;;;5054533;28;20187;-84
2021/05/29 02:48:15;;;;;;;13.52;10.00;;;12.00;90.90;;;;;;5055082;28;20143;-83
2021/05/29 02:50:42;;;;;;;11.75;9.50;;;11.90;90.80;;;;;;5055230;28;20045;-83
2021/05/29 02:53:10;;;;;;;13.95;10.02;;;11.90;90.70;;;;;;5054608;28;20052;-85
2021/05/29 02:55:37;;;;;;;15.25;9.20;;;11.90;90.80;;;;;;5055009;28;20048;-84
2021/05/29 02:58:04;;;;;;;12.30;9.60;;;11.90;90.70;;;;;;5054922;28;20443;-84
2021/05/29 03:00:35;;;;;;;11.88;9.27;;;11.80;90.60;;;;;;5054380;28;20041;-84
2021/05/29 03:03:03;;;;;;;14.52;9.40;;;11.80;90.50;;;;;;5054852;28;20059;-85
2021/05/29 03:05:29;;;;;;;11.40;8.80;;;11.80;90.60;;;;;;5054731;28;20072;-84
2021/05/29 03:07:55;;;;;;;11.60;8.63;;;11.80;90.60;;;;;;5054045;28;20053;-85
2021/05/29 03:10:21;;;;;;;12.35;9.43;;;11.70;90.40;;;;;;5055373;28;20136;-85
2021/05/29 03:12:48;;;;;;;12.93;9.50;;;11.70;90.30;;;;;;5055061;28;20444;-85
2021/05/29 03:15:18;;;;;;;14.00;9.27;;;11.70;90.30;;;;;;5053963;28;20124;-84
2021/05/29 03:17:44;;;;;;;12.07;9.55;;;11.70;90.30;;;;;;5054727;28;20500;-85
2021/05/29 03:20:12;;;;;;;12.90;9.18;;;11.70;90.40;;;;;;5054881;28;20116;-85
2021/05/29 03:22:38;;;;;;;12.00;9.43;;;11.70;90.30;;;;;;5054110;28;20494;-84
2021/05/29 03:25:06;;;;;;;12.15;8.70;;;11.70;90.30;;;;;;5053972;28;20045;-85
2021/05/29 03:27:33;;;;;;;13.55;9.77;;;11.70;90.40;;;;;;5054722;28;20527;-85
2021/05/29 03:29:59;;;;;;;13.43;9.95;;;11.60;90.60;;;;;;5053794;28;20128;-85
2021/05/29 03:32:25;;;;;;;12.65;9.40;;;11.60;90.80;;;;;;5054611;28;20077;-85
2021/05/29 03:34:50;;;;;;;13.25;9.93;;;11.60;90.80;;;;;;5054036;28;20073;-85
2021/05/29 03:37:16;;;;;;;12.38;9.93;;;11.60;90.90;;;;;;5054254;28;20500;-85
2021/05/29 03:39:42;;;;;;;10.88;8.75;;;11.60;90.80;;;;;;5053337;28;20132;-84
2021/05/29 03:42:08;;;;;;;12.50;9.65;;;11.60;90.70;;;;;;5053437;28;20049;-84
2021/05/29 03:44:34;;;;;;;13.68;9.38;;;11.60;90.60;;;;;;5054081;28;20048;-85
2021/05/29 03:47:00;;;;;;;11.75;9.20;;;11.60;90.70;;;;;;5054164;28;20076;-85
2021/05/29 03:49:25;;;;;;;12.15;9.25;;;11.60;90.80;;;;;;5053816;28;20087;-84
2021/05/29 03:51:51;;;;;;;13.80;9.50;;;11.60;90.90;;;;;;5054536;28;20053;-85
2021/05/29 03:54:17;;;;;;;13.20;9.85;;;11.60;91.20;;;;;;5054447;28;20045;-85
2021/05/29 03:56:43;;;;;;;16.83;10.05;;;11.60;91.20;;;;;;5053237;28;20053;-85
2021/05/29 03:59:13;;;;;;;12.23;9.57;;;11.60;91.20;;;;;;5042727;28;20052;-85
2021/05/29 04:01:39;;;;;;;11.23;8.93;;;11.60;91.10;;;;;;5053918;28;20056;-85
2021/05/29 04:04:07;;;;;;;11.70;8.20;;;11.60;91.00;;;;;;5052839;28;20114;-85
2021/05/29 04:06:33;;;;;;;12.95;9.35;;;11.60;90.90;;;;;;5054157;28;20102;-85
2021/05/29 04:09:02;;;;;;;12.90;8.98;;;11.60;90.90;;;;;;5053854;28;20079;-85
2021/05/29 04:11:28;;;;;;;11.77;8.40;;;11.60;90.80;;;;;;5053157;28;20497;-85
2021/05/29 04:13:53;;;;;;;12.25;8.43;;;11.60;90.70;;;;;;5053470;28;20063;-86
2021/05/29 04:16:20;;;;;;;12.85;8.25;;;11.60;90.60;;;;;;5053965;28;20049;-85
2021/05/29 04:18:46;;;;;;;12.48;9.27;;;11.60;90.50;;;;;;5053059;28;20404;-85
2021/05/29 04:21:11;;;;;;;11.45;8.23;;;11.60;90.50;;;;;;5053114;28;20143;-85
2021/05/29 04:23:37;;;;;;;12.45;9.23;;;11.60;90.60;;;;;;5053706;28;20083;-85
2021/05/29 04:26:06;;;;;;;12.82;8.40;;;11.60;90.70;;;;;;5052550;28;20049;-85
2021/05/29 04:28:33;;;;;;;10.70;8.50;;;11.60;90.60;;;;;;5053538;28;20507;-85
2021/05/29 04:30:58;;;;;;;12.55;9.27;;;11.60;90.70;;;;;;5035524;28;20088;-85
2021/05/29 04:33:24;;;;;;;11.27;8.85;;;11.60;90.70;;;;;;5052939;28;20084;-85
2021/05/29 04:35:50;;;;;;;11.35;8.55;;;11.60;90.80;;;;;;5053549;28;20053;-85
2021/05/29 04:38:16;;;;;;;11.90;8.75;;;11.60;90.60;;;;;;5052388;28;20408;-85
2021/05/29 04:40:41;;;;;;;11.02;8.20;;;11.60;90.70;;;;;;5053184;28;20049;-85
2021/05/29 04:43:07;;;;;;;11.38;8.43;;;11.60;90.70;;;;;;5053073;28;20045;-85
2021/05/29 04:45:32;;;;;;;12.35;9.50;;;11.60;90.50;;;;;;5052714;28;20045;-84
2021/05/29 04:47:58;;;;;;;12.38;8.95;;;11.60;90.80;;;;;;5053098;28;20053;-85
2021/05/29 04:50:24;;;;;;;11.98;8.80;;;11.60;90.80;;;;;;5052788;28;20049;-85
2021/05/29 04:52:50;;;;;;;12.07;8.93;;;11.60;90.70;;;;;;5052406;28;20075;-85
2021/05/29 04:55:16;;;;;;;11.48;9.45;;;11.60;90.80;;;;;;5052905;28;20045;-85
2021/05/29 04:57:43;;;;;;;14.00;9.85;;;11.60;91.00;;;;;;5053131;28;20473;-85
2021/05/29 05:00:12;;;;;;;13.00;9.88;;;11.60;91.10;;;;;;5051951;28;20064;-83
2021/05/29 05:02:38;;;;;;;12.15;9.20;;;11.60;91.20;;;;;;5052882;28;21335;-85
2021/05/29 05:05:05;;;;;;;12.73;9.60;;;11.60;91.20;;;;;;5052832;28;20048;-85
2021/05/29 05:07:30;;;;;;;14.30;10.48;;;11.70;91.20;;;;;;5051759;28;20079;-85
2021/05/29 05:09:56;;;;;;;15.45;11.00;;;11.60;91.00;;;;;;5052369;28;20045;-86
2021/05/29 05:12:22;;;;;;;16.42;11.73;;;11.70;91.00;;;;;;5052634;28;20045;-85
2021/05/29 05:14:47;;;;;;;12.15;9.50;;;11.70;91.00;;;;;;5052483;28;20046;-82
2021/05/29 05:17:13;;;;;;;16.27;11.93;;;11.70;91.10;;;;;;5052256;28;20401;-85
2021/05/29 05:19:39;;;;;;;12.88;9.80;;;11.70;91.10;;;;;;5052988;28;20053;-87
2021/05/29 05:22:06;;;;;;;12.85;9.43;;;11.70;91.20;;;;;;5051929;28;20053;-86
2021/05/29 05:24:32;;;;;;;13.85;10.18;;;11.70;91.00;;;;;;5052877;28;20049;-86
2021/05/29 05:26:57;;;;;;;12.00;9.30;;;11.70;90.90;;;;;;5052538;28;20473;-86
2021/05/29 05:29:23;;;;;;;12.27;9.48;;;11.70;90.90;;;;;;5052062;28;20136;-85
2021/05/29 05:32:01;;;;;;;15.23;10.88;;;11.70;91.10;;;;;;5052321;28;20053;-85
2021/05/29 05:34:26;;;;;;;12.15;9.98;;;11.70;90.70;;;;;;5051642;28;20041;-81
2021/05/29 05:36:52;;;;;;;15.82;11.50;;;11.70;90.90;;;;;;5052376;28;20053;-85
2021/05/29 05:39:18;;;;;;;15.20;10.93;;;11.70;90.90;;;;;;5052626;28;20090;-82
2021/05/29 05:41:43;;;;;;;12.85;10.32;;;11.80;90.90;;;;;;5051854;28;20102;-82
2021/05/29 05:44:09;;;;;;;19.63;13.05;;;11.80;91.00;;;;;;5051639;28;20504;-83
2021/05/29 05:46:35;;;;;;;16.00;11.18;;;11.80;91.00;;;;;;5051230;28;20045;-83
2021/05/29 05:49:02;;;;;;;14.82;10.35;;;11.80;91.20;;;;;;5051156;28;20053;-84
2021/05/29 05:51:30;;;;;;;14.55;10.38;;;11.80;90.90;;;;;;5052124;28;20132;-84
2021/05/29 05:54:05;;;;;;;20.38;13.85;;;11.80;90.80;;;;;;5051438;28;20052;-83
2021/05/29 05:56:31;;;;;;;13.23;10.55;;;11.80;91.00;;;;;;5050914;28;20413;-83
2021/05/29 05:58:57;;;;;;;14.50;11.10;;;11.80;91.00;;;;;;5051523;28;20048;-83
2021/05/29 06:01:25;;;;;;;19.83;14.10;;;11.90;91.00;;;;;;5051369;28;20056;-83
2021/05/29 06:03:54;;;;;;;17.52;13.70;;;11.90;91.00;;;;;;5053510;28;20053;-83
2021/05/29 06:06:20;;;;;;;18.88;13.32;;;11.90;91.00;;;;;;5055309;28;20037;-83
2021/05/29 06:08:46;;;;;;;20.55;14.43;;;11.90;91.10;;;;;;5055625;28;20049;-83
2021/05/29 06:11:12;;;;;;;17.00;12.45;;;11.90;91.20;;;;;;5055271;28;20420;-83
2021/05/29 06:19:31;;;;;;;22.98;16.02;;;12.00;91.20;;;;;;5053636;28;20077;-83
2021/05/29 06:21:43;;;;;;;17.67;12.20;;;12.00;91.30;;;;;;5045149;28;20060;-83
2021/05/29 06:24:09;;;;;;;18.95;14.05;;;12.00;91.10;;;;;;5055369;28;20103;-83
2021/05/29 06:26:35;;;;;;;20.63;15.50;;;12.00;91.20;;;;;;5055511;28;20037;-84
2021/05/29 06:29:05;;;;;;;17.15;12.88;;;12.10;91.30;;;;;;5055254;28;20053;-82
2021/05/29 06:31:30;;;;;;;14.10;11.32;;;12.10;91.30;;;;;;5055167;28;20057;-82
2021/05/29 06:33:56;;;;;;;15.38;12.77;;;12.10;91.30;;;;;;5055370;28;20060;-83
2021/05/29 06:36:25;;;;;;;18.30;13.93;;;12.10;91.20;;;;;;5055733;28;20041;-82
2021/05/29 06:38:53;;;;;;;19.17;13.45;;;12.10;91.30;;;;;;5054530;28;20083;-84
2021/05/29 06:41:19;;;;;;;18.13;13.48;;;12.10;91.30;;;;;;5055105;28;20052;-85
2021/05/29 06:43:46;;;;;;;20.63;13.98;;;12.20;91.30;;;;;;5053894;28;20053;-82
2021/05/29 06:46:16;;;;;;;23.35;15.48;;;12.20;91.30;;;;;;5053926;28;20045;-81
2021/05/29 06:48:41;;;;;;;18.83;14.40;;;12.20;91.40;;;;;;5055121;28;20544;-81
2021/05/29 06:51:09;;;;;;;20.08;15.60;;;12.20;91.40;;;;;;5055053;28;20068;-81
2021/05/29 06:53:40;;;;;;;16.10;13.50;;;12.20;91.40;;;;;;5054148;28;20123;-81
2021/05/29 06:58:51;;;;;;;20.52;14.52;;;12.30;91.40;;;;;;5052277;28;20386;-81
2021/05/29 07:01:25;;;;;;;17.10;13.35;;;12.30;91.30;;;;;;5054716;28;20077;-80
2021/05/29 07:04:18;;;;;;;16.50;13.55;;;12.30;91.20;;;;;;5054785;28;20437;-81
2021/05/29 07:06:51;;;;;;;18.23;13.93;;;12.40;91.20;;;;;;5054238;28;20053;-81
2021/05/29 07:09:25;;;;;;;18.20;13.38;;;12.40;91.50;;;;;;5047242;28;20060;-81
2021/05/29 07:11:55;;;;;;;22.08;13.82;;;12.40;91.20;;;;;;5054133;28;20052;-81
2021/05/29 07:14:20;;;;;;;19.05;13.55;;;12.50;91.20;;;;;;5053733;28;20124;-81
2021/05/29 07:16:49;;;;;;;20.27;13.68;;;12.50;91.20;;;;;;5055142;28;20136;-82
2021/05/29 07:19:15;;;;;;;20.33;13.57;;;12.50;91.20;;;;;;5054507;28;20049;-82
2021/05/29 07:21:41;;;;;;;17.98;13.00;;;12.50;91.10;;;;;;5054143;28;20045;-81
2021/05/29 07:24:06;;;;;;;20.02;13.23;;;12.50;91.00;;;;;;5054047;28;20053;-81
2021/05/29 07:26:35;;;;;;;18.50;12.55;;;12.60;91.00;;;;;;5053597;28;20094;-81
2021/05/29 07:29:03;;;;;;;17.05;12.57;;;12.60;90.90;;;;;;5053238;28;20162;-83
2021/05/29 07:31:32;;;;;;;19.35;12.32;;;12.60;90.90;;;;;;5054256;28;20136;-84
2021/05/29 07:33:58;;;;;;;19.63;13.38;;;12.60;90.80;;;;;;5052899;28;20140;-83
2021/05/29 07:36:24;;;;;;;14.13;11.65;;;12.70;90.70;;;;;;5050552;28;20076;-83
2021/05/29 07:38:53;;;;;;;18.50;12.77;;;12.70;90.70;;;;;;5053105;28;20044;-84
2021/05/29 07:41:20;;;;;;;18.90;13.35;;;12.70;90.70;;;;;;5052531;28;20044;-84
2021/05/29 07:43:46;;;;;;;16.90;12.80;;;12.80;90.80;;;;;;5050717;28;20067;-83
2021/05/29 07:46:12;;;;;;;18.67;13.10;;;12.80;90.80;;;;;;5052948;28;20049;-83
2021/05/29 07:48:40;;;;;;;17.15;12.38;;;12.90;90.80;;;;;;5052228;28;20098;-83
2021/05/29 07:51:06;;;;;;;17.92;11.85;;;12.90;90.80;;;;;;5050177;28;20124;-83
2021/05/29 07:53:35;;;;;;;16.23;11.35;;;13.00;90.60;;;;;;5054353;28;20474;-83
2021/05/29 07:56:04;;;;;;;15.45;11.15;;;13.00;90.50;;;;;;5053394;28;20087;-82
2021/05/29 07:58:30;;;;;;;16.58;11.20;;;13.00;90.40;;;;;;5054316;28;20053;-84
2021/05/29 08:00:57;;;;;;;14.45;11.07;;;13.10;90.20;;;;;;5053688;28;20061;-84
2021/05/29 08:03:25;;;;;;;17.80;11.43;;;13.10;90.10;;;;;;5053412;28;20044;-84
2021/05/29 08:05:54;;;;;;;17.80;10.63;;;13.20;90.00;;;;;;5054447;28;20099;-85
2021/05/29 08:08:20;;;;;;;16.38;11.05;;;13.20;90.00;;;;;;5054397;28;20132;-83
2021/05/29 08:10:48;;;;;;;17.35;10.73;;;13.30;90.10;;;;;;5053059;28;20045;-82
2021/05/29 08:13:14;;;;;;;16.50;10.80;;;13.30;89.80;;;;;;5053371;28;20045;-82
2021/05/29 08:15:41;;;;;;;16.00;10.93;;;13.40;89.80;;;;;;5053465;28;20048;-82
2021/05/29 08:18:08;;;;;;;15.80;11.10;;;13.40;89.70;;;;;;5052793;28;20037;-84
2021/05/29 08:20:41;;;;;;;14.88;10.68;;;13.50;89.60;;;;;;5050424;28;20041;-84
2021/05/29 08:23:07;;;;;;;16.00;10.98;;;13.50;89.30;;;;;;5033495;28;20504;-84
2021/05/29 08:25:37;;;;;;;14.00;10.75;;;13.60;88.80;;;;;;5032503;28;20448;-84
2021/05/29 08:28:06;;;;;;;17.08;11.60;;;13.60;88.60;;;;;;5035864;28;20056;-84
2021/05/29 08:30:32;;;;;;;13.93;10.52;;;13.60;88.00;;;;;;5053350;28;20059;-82
2021/05/29 08:33:01;;;;;;;14.85;10.65;;;13.60;88.30;;;;;;5053949;28;20047;-81
2021/05/29 08:35:27;;;;;;;15.88;11.85;;;13.60;88.50;;;;;;5053699;28;20060;-82
2021/05/29 08:37:53;;;;;;;16.23;11.55;;;13.70;88.70;;;;;;5052643;28;20048;-82
2021/05/29 08:40:20;;;;;;;17.33;10.98;;;13.70;88.80;;;;;;5053613;28;20048;-82
2021/05/29 08:42:50;;;;;;;14.77;10.27;;;13.80;88.70;;;;;;5053253;28;20127;-81
2021/05/29 08:45:27;;;;;;;14.25;9.82;;;13.80;88.30;;;;;;5052318;28;20515;-83
2021/05/29 08:47:59;;;;;;;14.10;9.95;;;13.90;87.80;;;;;;5050378;28;20053;-81
2021/05/29 08:50:28;;;;;;;16.25;10.75;;;13.90;88.00;;;;;;5050874;28;20493;-82
2021/05/29 08:52:55;;;;;;;14.38;9.95;;;14.00;87.20;;;;;;5050087;28;20101;-82
2021/05/29 08:55:35;;;;;;;15.85;10.23;;;14.00;86.80;;;;;;5033185;28;20497;-82
2021/05/29 08:58:01;;;;;;;12.27;9.30;;;14.00;86.70;;;;;;5050757;28;20053;-80
2021/05/29 09:00:30;;;;;;;12.20;9.02;;;14.10;86.60;;;;;;5050187;28;20049;-80
2021/05/29 09:03:00;;;;;;;14.02;8.63;;;14.20;86.80;;;;;;5051273;28;20052;-80
2021/05/29 09:05:40;;;;;;;12.50;7.88;;;14.20;86.40;;;;;;5051451;28;20056;-79
2021/05/29 09:08:13;;;;;;;13.07;8.77;;;14.20;85.50;;;;;;5052843;28;20052;-80
2021/05/29 09:10:49;;;;;;;12.63;8.82;;;14.30;85.80;;;;;;5052778;28;20048;-82
2021/05/29 09:13:18;;;;;;;14.57;7.85;;;14.30;85.80;;;;;;5051510;28;20056;-80
2021/05/29 09:15:54;;;;;;;12.02;8.02;;;14.30;86.30;;;;;;5052759;28;20048;-80
2021/05/29 09:18:37;;;;;;;14.80;7.95;;;14.40;85.50;;;;;;5052330;28;20080;-80
2021/05/29 09:21:33;;;;;;;11.32;7.55;;;14.40;84.50;;;;;;5051411;28;20508;-79
2021/05/29 09:24:02;;;;;;;12.90;8.00;;;14.50;84.20;;;;;;5052029;28;20049;-80
2021/05/29 09:26:53;;;;;;;16.80;8.13;;;14.50;84.30;;;;;;5052320;28;20045;-82
2021/05/29 09:29:21;;;;;;;15.32;7.88;;;14.60;84.00;;;;;;5051703;28;20049;-81
2021/05/29 09:32:02;;;;;;;14.02;8.00;;;14.60;84.60;;;;;;5051640;28;20134;-81
2021/05/29 09:34:43;;;;;;;15.88;8.00;;;14.60;84.30;;;;;;5051818;28;20049;-81
2021/05/29 09:37:13;;;;;;;13.10;7.22;;;14.70;84.50;;;;;;5052282;28;20536;-82
2021/05/29 09:39:42;;;;;;;12.90;7.00;;;14.80;84.30;;;;;;5052010;28;20052;-82
2021/05/29 09:42:09;;;;;;;13.57;7.63;;;14.80;83.80;;;;;;5051297;28;20489;-81
2021/05/29 09:44:35;;;;;;;12.00;6.50;;;14.90;83.40;;;;;;5052481;28;20417;-82
2021/05/29 09:47:04;;;;;;;11.35;6.70;;;15.00;83.40;;;;;;5052110;28;20052;-80
2021/05/29 09:49:56;;;;;;;13.68;7.50;;;15.00;83.60;;;;;;5051423;28;20056;-80
2021/05/29 09:52:36;;;;;;;10.70;6.60;;;15.10;83.80;;;;;;5052537;28;20053;-80
2021/05/29 09:55:12;;;;;;;11.82;5.95;;;15.20;83.40;;;;;;5051240;28;20464;-79
2021/05/29 09:57:51;;;;;;;11.35;6.65;;;15.20;82.20;;;;;;5052478;28;20052;-79
2021/05/29 10:00:17;;;;;;;11.85;6.13;;;15.30;83.30;;;;;;5051028;28;20083;-79
2021/05/29 10:03:04;;;;;;;14.40;7.03;;;15.40;83.50;;;;;;5051534;28;20049;-79
2021/05/29 10:05:35;;;;;;;14.57;6.25;;;15.50;83.40;;;;;;5052100;28;20049;-79
2021/05/29 10:08:01;;;;;;;14.95;6.80;;;15.50;82.50;;;;;;5051516;28;20123;-79
2021/05/29 10:10:28;;;;;;;11.98;6.40;;;15.60;82.70;;;;;;5050064;28;20492;-79
2021/05/29 10:12:54;;;;;;;11.55;6.20;;;15.60;82.90;;;;;;5040121;28;20076;-79
2021/05/29 10:15:20;;;;;;;9.07;5.60;;;15.70;83.30;;;;;;5050828;28;20441;-79
2021/05/29 10:17:46;;;;;;;9.80;6.72;;;15.80;84.10;;;;;;5050383;28;20053;-79
2021/05/29 10:20:13;;;;;;;11.38;5.75;;;15.90;83.90;;;;;;5050833;28;20496;-79
2021/05/29 10:22:39;;;;;;;13.35;5.88;;;16.00;82.80;;;;;;5050900;28;20098;-80
2021/05/29 10:25:13;;;;;;;11.23;6.45;;;16.10;81.60;;;;;;5050522;28;20049;-82
2021/05/29 10:27:44;;;;;;;10.20;5.85;;;16.10;82.20;;;;;;5051873;28;20055;-80
2021/05/29 10:30:11;;;;;;;10.88;5.55;;;16.20;81.80;;;;;;5049969;28;20052;-85
2021/05/29 10:32:40;;;;;;;12.43;5.30;;;16.20;81.10;;;;;;5052406;28;20060;-82
2021/05/29 10:35:12;;;;;;;10.98;5.80;;;16.30;81.50;;;;;;5051270;28;20049;-82
2021/05/29 10:37:41;;;;;;;10.85;5.65;;;16.30;81.00;;;;;;5051107;28;20073;-83
2021/05/29 10:40:26;;;;;;;11.73;6.10;;;16.30;80.80;;;;;;5052041;28;20052;-84
2021/05/29 10:43:07;;;;;;;11.27;5.80;;;16.30;81.40;;;;;;5031794;28;20053;-82
2021/05/29 10:45:34;;;;;;;11.48;5.63;;;16.40;82.00;;;;;;5030033;28;20046;-83
2021/05/29 10:48:12;;;;;;;12.18;5.65;;;16.40;80.60;;;;;;5031602;28;20054;-83
2021/05/29 10:53:46;;;;;;;9.82;5.70;;;16.40;77.80;;;;;;5035755;28;20115;-83
2021/05/29 10:56:21;;;;;;;12.30;5.60;;;16.30;77.80;;;;;;5035513;28;20049;-83
2021/05/29 10:59:07;;;;;;;13.20;6.32;;;16.30;79.50;;;;;;5035157;28;20123;-83
2021/05/29 11:01:32;;;;;;;10.82;5.75;;;16.40;80.10;;;;;;5035369;28;20110;-83
2021/05/29 11:04:21;;;;;;;10.93;5.97;;;16.40;81.30;;;;;;5035535;28;20058;-83
2021/05/29 11:06:52;;;;;;;12.18;5.13;;;16.40;81.70;;;;;;5034745;28;20100;-82
2021/05/29 11:09:37;;;;;;;9.30;5.45;;;16.50;80.60;;;;;;5035526;28;20049;-82
2021/05/29 11:12:05;;;;;;;10.27;4.90;;;16.50;81.50;;;;;;5034138;28;20096;-83
2021/05/29 11:14:47;;;;;;;11.63;5.53;;;16.60;79.40;;;;;;5035235;28;20103;-83
2021/05/29 11:17:14;;;;;;;9.55;5.25;;;16.60;81.70;;;;;;5035163;28;20045;-82
2021/05/29 11:19:41;;;;;;;11.13;5.22;;;16.70;81.60;;;;;;5034240;28;20464;-82
2021/05/29 11:22:13;;;;;;;9.32;5.25;;;16.80;80.90;;;;;;5035047;28;20054;-82
2021/05/29 11:24:49;;;;;;;11.13;5.05;;;16.90;81.30;;;;;;5035219;28;20050;-82
2021/05/29 11:27:27;;;;;;;9.15;5.05;;;17.00;79.20;;;;;;5034063;28;20050;-83
2021/05/29 11:29:54;;;;;;;9.02;5.20;;;17.10;81.70;;;;;;5034955;28;20402;-83
2021/05/29 11:32:41;;;;;;;9.35;5.40;;;17.10;82.50;;;;;;5035115;28;20129;-83
2021/05/29 11:35:07;;;;;;;10.70;5.43;;;17.20;82.80;;;;;;5033780;28;20057;-83
2021/05/29 11:37:36;;;;;;;9.25;4.95;;;17.30;81.60;;;;;;5034751;28;20049;-83
2021/05/29 11:40:01;;;;;;;8.27;4.90;;;17.40;81.60;;;;;;5034512;28;20088;-83
2021/05/29 11:42:27;;;;;;;9.43;5.07;;;17.50;81.20;;;;;;5034294;28;20180;-83
2021/05/29 11:45:13;;;;;;;9.07;5.30;;;17.50;80.40;;;;;;5034027;28;20045;-83
2021/05/29 11:47:39;;;;;;;10.45;5.00;;;17.40;79.10;;;;;;5034039;28;20065;-83
2021/05/29 11:50:05;;;;;;;9.73;4.97;;;17.40;79.20;;;;;;5032713;28;20049;-83
2021/05/29 11:52:31;;;;;;;10.38;4.90;;;17.40;81.00;;;;;;5033441;28;20452;-83
2021/05/29 11:54:56;;;;;;;8.38;5.03;;;17.40;81.10;;;;;;5033619;28;20054;-83
2021/05/29 11:57:22;;;;;;;9.68;5.00;;;17.50;81.90;;;;;;5033546;28;20100;-83
2021/05/29 11:59:48;;;;;;;8.48;5.00;;;17.50;82.20;;;;;;5034084;28;20099;-83
2021/05/29 12:02:13;;;;;;;9.55;4.88;;;17.60;80.90;;;;;;5032639;28;20053;-83
2021/05/29 12:04:40;;;;;;;8.98;4.50;;;17.60;81.50;;;;;;5034070;28;20175;-83
2021/05/29 12:07:06;;;;;;;7.82;4.10;;;17.60;79.70;;;;;;5034113;28;20046;-83
2021/05/29 12:09:41;;;;;;;10.45;4.90;;;17.60;78.70;;;;;;5033722;28;20046;-83
2021/05/29 12:12:15;;;;;;;8.82;4.80;;;17.60;80.20;;;;;;5034063;28;20119;-87
2021/05/29 12:14:42;;;;;;;8.95;4.82;;;17.70;80.30;;;;;;5038722;28;20045;-82
2021/05/29 12:17:19;;;;;;;8.43;4.30;;;17.80;80.70;;;;;;5052418;28;20493;-84
2021/05/29 12:19:51;;;;;;;9.30;5.18;;;17.90;79.20;;;;;;5053670;28;20116;-84
2021/05/29 12:22:18;;;;;;;8.60;4.97;;;17.80;76.70;;;;;;5053459;28;20048;-83
2021/05/29 12:25:09;;;;;;;8.38;4.75;;;17.90;79.90;;;;;;5052982;28;20041;-82
2021/05/29 12:27:43;;;;;;;9.45;5.15;;;17.80;81.20;;;;;;5053367;28;20040;-81
2021/05/29 12:30:13;;;;;;;9.50;4.80;;;17.90;82.10;;;;;;5043196;28;20102;-81
2021/05/29 12:32:41;;;;;;;8.55;4.75;;;18.00;81.90;;;;;;5051936;28;20069;-81
2021/05/29 12:35:09;;;;;;;9.25;4.95;;;18.00;83.20;;;;;;5051204;28;20175;-81
2021/05/29 12:37:36;;;;;;;8.35;4.95;;;18.10;83.80;;;;;;5049537;28;20076;-82
2021/05/29 12:40:10;;;;;;;8.57;5.05;;;18.20;83.40;;;;;;5050196;28;20041;-81
2021/05/29 12:42:45;;;;;;;8.05;4.80;;;18.20;82.30;;;;;;5050589;28;20052;-81
2021/05/29 12:45:25;;;;;;;7.50;5.20;;;18.20;83.80;;;;;;5050052;28;20045;-81
2021/05/29 12:47:57;;;;;;;7.65;4.90;;;18.30;84.60;;;;;;5051436;28;20056;-81
2021/05/29 12:50:29;;;;;;;7.10;4.60;;;18.40;83.10;;;;;;5053345;28;20554;-81
2021/05/29 12:53:07;;;;;;;9.32;5.10;;;18.40;84.20;;;;;;5052470;28;20071;-83
2021/05/29 12:55:32;;;;;;;7.63;4.93;;;18.50;84.10;;;;;;5053050;28;20049;-82